This is the latest recevied weather packets stored in our database for station/object IK1YPD-13. If no packets are shown the sender has not sent any weather packets the latest 10 day(s).
| Time | Temp. | Humidity | Pressure | Rain* | Wind** | Luminosity | Snow |
|---|---|---|---|---|---|---|---|
| 1777962229 | 14.44° C | 84% | 1008 hPa | - | - | - | - |
| 1777961328 | 13.89° C | 82% | 1007 hPa | - | - | - | - |
| 1777960428 | 13.89° C | 83% | 1007 hPa | - | - | - | - |
| 1777959528 | 13.89° C | 81% | 1008 hPa | - | - | - | - |
| 1777958628 | 13.89° C | 83% | 1008 hPa | - | - | - | - |
| 1777957728 | 13.89° C | 84% | 1008 hPa | - | - | - | - |
| 1777956828 | 13.89° C | 84% | 1008 hPa | - | - | - | - |
| 1777955928 | 13.89° C | 84% | 1008 hPa | - | - | - | - |
| 1777955028 | 13.89° C | 82% | 1008 hPa | - | - | - | - |
| 1777954128 | 13.89° C | 80% | 1008 hPa | - | - | - | - |
| 1777943326 | 15.56° C | 75% | 1010 hPa | - | - | - | - |
| 1777942426 | 16.11° C | 72% | 1011 hPa | - | - | - | - |
| 1777941526 | 16.67° C | 65% | 1011 hPa | - | - | - | - |
| 1777940626 | 17.22° C | 61% | 1011 hPa | - | - | - | - |
| 1777939726 | 17.22° C | 59% | 1011 hPa | - | - | - | - |
| 1777937026 | 17.22° C | 60% | 1012 hPa | - | - | - | - |
| 1777934326 | 16.67° C | 62% | 1012 hPa | - | - | - | - |
| 1777933426 | 16.67° C | 67% | 1013 hPa | - | - | - | - |
| 1777932526 | 16.11° C | 69% | 1013 hPa | - | - | - | - |
| 1777931625 | 16.11° C | 69% | 1013 hPa | - | - | - | - |
| 1777930725 | 16.11° C | 69% | 1013 hPa | - | - | - | - |
| 1777929825 | 16.11° C | 70% | 1014 hPa | - | - | - | - |
| 1777923525 | 17.22° C | 66% | 1013 hPa | - | - | - | - |
| 1777922625 | 17.78° C | 65% | 1014 hPa | - | - | - | - |
| 1777920825 | 17.78° C | 63% | 1013 hPa | - | - | - | - |
* Rain since midnight (hover to see other rain measurements)
** Current wind speed in m/s (hover to see current wind gust speed)